This is the latest recevied weather packets stored in our database for station/object EA1AWV-13. If no packets are shown the sender has not sent any weather packets the latest 10 day(s).
| Time | Temp. | Humidity | Pressure | Rain* | Wind** | Luminosity | Snow |
|---|---|---|---|---|---|---|---|
| 1787429081 | 28.89° C | 10% | - | - | - | - | - |
| 1787428480 | 29.44° C | 95% | 1005.9 hPa | - | - | - | - |
| 1787427881 | 29.44° C | 87% | 1005.8 hPa | - | - | - | - |
| 1787427281 | 29.44° C | 85% | 1005.7 hPa | - | - | - | - |
| 1787426680 | 30° C | 83% | 1005.6 hPa | - | - | - | - |
| 1787426081 | 30° C | 83% | 1005.5 hPa | - | - | - | - |
| 1787425480 | 30.56° C | 83% | 1005.4 hPa | - | - | - | - |
| 1787424881 | 31.11° C | 81% | 1005.3 hPa | - | - | - | - |
| 1787424280 | 31.11° C | 80% | 1005.2 hPa | - | - | - | - |
| 1787423680 | 31.11° C | 81% | 1005.1 hPa | - | - | - | - |
| 1787423080 | 31.11° C | 81% | 1005.1 hPa | - | - | - | - |
| 1787422480 | 31.11° C | 83% | 1005.2 hPa | - | - | - | - |
| 1787421880 | 31.11° C | 84% | 1005.2 hPa | - | - | - | - |
| 1787421280 | 31.11° C | 84% | 1005.1 hPa | - | - | - | - |
| 1787420681 | 31.11° C | 87% | 1005.4 hPa | - | - | - | - |
| 1787420080 | 31.11° C | 88% | 1005.4 hPa | - | - | - | - |
| 1787419480 | 31.11° C | 89% | 1005.3 hPa | - | - | - | - |
| 1787418880 | 31.67° C | 89% | 1005.2 hPa | - | - | - | - |
| 1787418280 | 31.11° C | 87% | 1005.4 hPa | - | - | - | - |
| 1787417680 | 31.67° C | 88% | 1005.2 hPa | - | - | - | - |
| 1787417080 | 32.22° C | 92% | 1005.2 hPa | - | - | - | - |
| 1787416480 | 31.67° C | 92% | 1005.5 hPa | - | - | - | - |
| 1787415880 | 31.67° C | 92% | 1005.4 hPa | - | - | - | - |
| 1787415280 | 31.67° C | 93% | 1005.5 hPa | - | - | - | - |
| 1787414680 | 31.11° C | 95% | 1005.6 hPa | - | - | - | - |
* Rain since midnight (hover to see other rain measurements)
** Current wind speed in m/s (hover to see current wind gust speed)